sensor_id;sensor_type;location;lat;lon;timestamp;P1;durP1;ratioP1;P2;durP2;ratioP2
69502;SDS011;56704;54.242;12.442;2023-08-20T00:01:07;29.98;;;18.00;;
69502;SDS011;56704;54.242;12.442;2023-08-20T00:03:39;31.27;;;17.17;;
69502;SDS011;56704;54.242;12.442;2023-08-20T00:06:06;25.93;;;15.00;;
69502;SDS011;56704;54.242;12.442;2023-08-20T00:08:33;26.70;;;14.30;;
69502;SDS011;56704;54.242;12.442;2023-08-20T00:11:00;25.80;;;12.30;;
69502;SDS011;56704;54.242;12.442;2023-08-20T00:13:26;19.63;;;11.48;;
69502;SDS011;56704;54.242;12.442;2023-08-20T00:15:53;18.50;;;10.77;;
69502;SDS011;56704;54.242;12.442;2023-08-20T00:18:22;21.57;;;11.57;;
69502;SDS011;56704;54.242;12.442;2023-08-20T00:20:49;20.75;;;11.05;;
69502;SDS011;56704;54.242;12.442;2023-08-20T00:23:16;19.00;;;11.25;;
69502;SDS011;56704;54.242;12.442;2023-08-20T00:25:43;20.40;;;11.50;;
69502;SDS011;56704;54.242;12.442;2023-08-20T00:28:10;19.88;;;11.82;;
69502;SDS011;56704;54.242;12.442;2023-08-20T00:30:36;19.43;;;11.07;;
69502;SDS011;56704;54.242;12.442;2023-08-20T00:33:03;17.48;;;10.20;;
69502;SDS011;56704;54.242;12.442;2023-08-20T00:35:31;17.95;;;10.40;;
69502;SDS011;56704;54.242;12.442;2023-08-20T00:37:58;17.83;;;10.07;;
69502;SDS011;56704;54.242;12.442;2023-08-20T00:40:25;17.30;;;9.73;;
69502;SDS011;56704;54.242;12.442;2023-08-20T00:42:51;18.43;;;10.17;;
69502;SDS011;56704;54.242;12.442;2023-08-20T00:45:18;16.58;;;9.43;;
69502;SDS011;56704;54.242;12.442;2023-08-20T00:47:45;17.52;;;9.77;;
69502;SDS011;56704;54.242;12.442;2023-08-20T00:50:11;17.73;;;9.60;;
69502;SDS011;56704;54.242;12.442;2023-08-20T00:52:40;19.30;;;9.90;;
69502;SDS011;56704;54.242;12.442;2023-08-20T00:55:08;20.33;;;9.77;;
69502;SDS011;56704;54.242;12.442;2023-08-20T00:57:36;16.23;;;9.13;;
69502;SDS011;56704;54.242;12.442;2023-08-20T01:00:04;17.08;;;8.80;;
69502;SDS011;56704;54.242;12.442;2023-08-20T01:02:35;17.55;;;9.52;;
69502;SDS011;56704;54.242;12.442;2023-08-20T01:05:03;17.05;;;8.88;;
69502;SDS011;56704;54.242;12.442;2023-08-20T01:07:34;16.80;;;8.97;;
69502;SDS011;56704;54.242;12.442;2023-08-20T01:10:23;18.23;;;9.02;;
69502;SDS011;56704;54.242;12.442;2023-08-20T01:12:56;17.58;;;9.20;;
69502;SDS011;56704;54.242;12.442;2023-08-20T01:15:23;18.13;;;9.10;;
69502;SDS011;56704;54.242;12.442;2023-08-20T01:17:50;17.98;;;10.15;;
69502;SDS011;56704;54.242;12.442;2023-08-20T01:20:16;20.63;;;10.57;;
69502;SDS011;56704;54.242;12.442;2023-08-20T01:22:59;19.52;;;11.13;;
69502;SDS011;56704;54.242;12.442;2023-08-20T01:25:50;18.95;;;10.60;;
69502;SDS011;56704;54.242;12.442;2023-08-20T01:28:34;18.92;;;10.82;;
69502;SDS011;56704;54.242;12.442;2023-08-20T01:31:02;19.73;;;11.25;;
69502;SDS011;56704;54.242;12.442;2023-08-20T01:33:30;18.93;;;10.43;;
69502;SDS011;56704;54.242;12.442;2023-08-20T01:35:57;18.33;;;10.25;;
69502;SDS011;56704;54.242;12.442;2023-08-20T01:38:24;20.05;;;11.18;;
69502;SDS011;56704;54.242;12.442;2023-08-20T01:40:50;23.15;;;11.93;;
69502;SDS011;56704;54.242;12.442;2023-08-20T01:43:17;18.95;;;10.57;;
69502;SDS011;56704;54.242;12.442;2023-08-20T01:45:45;18.97;;;11.00;;
69502;SDS011;56704;54.242;12.442;2023-08-20T01:48:12;23.92;;;12.15;;
69502;SDS011;56704;54.242;12.442;2023-08-20T01:50:39;25.13;;;13.00;;
69502;SDS011;56704;54.242;12.442;2023-08-20T01:53:06;26.73;;;13.02;;
69502;SDS011;56704;54.242;12.442;2023-08-20T01:55:35;45.47;;;14.50;;
69502;SDS011;56704;54.242;12.442;2023-08-20T01:58:02;52.47;;;14.53;;
69502;SDS011;56704;54.242;12.442;2023-08-20T02:00:28;47.95;;;14.38;;
69502;SDS011;56704;54.242;12.442;2023-08-20T02:02:57;53.00;;;15.10;;
69502;SDS011;56704;54.242;12.442;2023-08-20T02:05:23;75.50;;;16.27;;
69502;SDS011;56704;54.242;12.442;2023-08-20T02:07:51;78.53;;;16.00;;
69502;SDS011;56704;54.242;12.442;2023-08-20T02:10:18;65.50;;;15.43;;
69502;SDS011;56704;54.242;12.442;2023-08-20T02:12:46;78.57;;;15.95;;
69502;SDS011;56704;54.242;12.442;2023-08-20T02:15:14;52.42;;;15.55;;
69502;SDS011;56704;54.242;12.442;2023-08-20T02:17:40;71.90;;;15.75;;
69502;SDS011;56704;54.242;12.442;2023-08-20T02:20:09;61.00;;;15.20;;
69502;SDS011;56704;54.242;12.442;2023-08-20T02:22:36;54.27;;;16.07;;
69502;SDS011;56704;54.242;12.442;2023-08-20T02:25:03;61.13;;;16.20;;
69502;SDS011;56704;54.242;12.442;2023-08-20T02:27:30;52.58;;;17.27;;
69502;SDS011;56704;54.242;12.442;2023-08-20T02:29:56;52.92;;;17.83;;
69502;SDS011;56704;54.242;12.442;2023-08-20T02:32:23;47.53;;;18.23;;
69502;SDS011;56704;54.242;12.442;2023-08-20T02:34:50;62.77;;;16.37;;
69502;SDS011;56704;54.242;12.442;2023-08-20T02:37:18;49.08;;;15.77;;
69502;SDS011;56704;54.242;12.442;2023-08-20T02:39:45;57.67;;;16.65;;
69502;SDS011;56704;54.242;12.442;2023-08-20T02:42:11;64.85;;;17.42;;
69502;SDS011;56704;54.242;12.442;2023-08-20T02:44:38;53.88;;;16.92;;
69502;SDS011;56704;54.242;12.442;2023-08-20T02:47:05;57.43;;;18.17;;
69502;SDS011;56704;54.242;12.442;2023-08-20T02:49:32;64.50;;;19.33;;
69502;SDS011;56704;54.242;12.442;2023-08-20T02:51:58;59.67;;;19.10;;
69502;SDS011;56704;54.242;12.442;2023-08-20T02:54:26;53.38;;;19.38;;
69502;SDS011;56704;54.242;12.442;2023-08-20T02:56:54;58.50;;;20.13;;
69502;SDS011;56704;54.242;12.442;2023-08-20T02:59:21;60.40;;;22.53;;
69502;SDS011;56704;54.242;12.442;2023-08-20T03:01:48;65.88;;;21.95;;
69502;SDS011;56704;54.242;12.442;2023-08-20T03:04:15;60.67;;;22.45;;
69502;SDS011;56704;54.242;12.442;2023-08-20T03:06:41;58.70;;;21.27;;
69502;SDS011;56704;54.242;12.442;2023-08-20T03:09:09;62.50;;;22.50;;
69502;SDS011;56704;54.242;12.442;2023-08-20T03:11:37;54.90;;;20.67;;
69502;SDS011;56704;54.242;12.442;2023-08-20T03:14:04;58.50;;;21.58;;
69502;SDS011;56704;54.242;12.442;2023-08-20T03:16:30;58.97;;;18.25;;
69502;SDS011;56704;54.242;12.442;2023-08-20T03:18:57;58.60;;;20.20;;
69502;SDS011;56704;54.242;12.442;2023-08-20T03:21:23;54.10;;;21.33;;
69502;SDS011;56704;54.242;12.442;2023-08-20T03:23:50;52.83;;;19.40;;
69502;SDS011;56704;54.242;12.442;2023-08-20T03:26:17;58.90;;;20.27;;
69502;SDS011;56704;54.242;12.442;2023-08-20T03:28:45;54.35;;;20.23;;
69502;SDS011;56704;54.242;12.442;2023-08-20T03:31:11;52.30;;;18.48;;
69502;SDS011;56704;54.242;12.442;2023-08-20T03:33:38;59.22;;;20.75;;
69502;SDS011;56704;54.242;12.442;2023-08-20T03:36:05;58.63;;;19.63;;
69502;SDS011;56704;54.242;12.442;2023-08-20T03:38:31;59.30;;;19.05;;
69502;SDS011;56704;54.242;12.442;2023-08-20T03:40:58;61.72;;;20.08;;
69502;SDS011;56704;54.242;12.442;2023-08-20T03:43:26;64.15;;;21.35;;
69502;SDS011;56704;54.242;12.442;2023-08-20T03:45:54;70.60;;;21.88;;
69502;SDS011;56704;54.242;12.442;2023-08-20T03:48:21;71.13;;;23.00;;
69502;SDS011;56704;54.242;12.442;2023-08-20T03:50:48;69.60;;;21.92;;
69502;SDS011;56704;54.242;12.442;2023-08-20T03:53:14;78.63;;;21.30;;
69502;SDS011;56704;54.242;12.442;2023-08-20T03:55:41;75.25;;;21.90;;
69502;SDS011;56704;54.242;12.442;2023-08-20T03:58:08;79.03;;;21.48;;
69502;SDS011;56704;54.242;12.442;2023-08-20T04:00:34;72.00;;;21.37;;
69502;SDS011;56704;54.242;12.442;2023-08-20T04:03:02;69.28;;;21.00;;
69502;SDS011;56704;54.242;12.442;2023-08-20T04:05:29;76.57;;;20.80;;
69502;SDS011;56704;54.242;12.442;2023-08-20T04:08:01;70.00;;;21.08;;
69502;SDS011;56704;54.242;12.442;2023-08-20T04:10:28;73.18;;;21.23;;
69502;SDS011;56704;54.242;12.442;2023-08-20T04:12:54;74.73;;;19.43;;
69502;SDS011;56704;54.242;12.442;2023-08-20T04:15:21;69.53;;;20.67;;
69502;SDS011;56704;54.242;12.442;2023-08-20T04:17:48;62.40;;;19.25;;
69502;SDS011;56704;54.242;12.442;2023-08-20T04:20:16;61.50;;;20.02;;
69502;SDS011;56704;54.242;12.442;2023-08-20T04:22:42;69.38;;;19.17;;
69502;SDS011;56704;54.242;12.442;2023-08-20T04:25:09;62.33;;;20.17;;
69502;SDS011;56704;54.242;12.442;2023-08-20T04:27:36;59.72;;;19.45;;
69502;SDS011;56704;54.242;12.442;2023-08-20T04:30:03;63.45;;;19.52;;
69502;SDS011;56704;54.242;12.442;2023-08-20T04:32:30;59.60;;;17.42;;
69502;SDS011;56704;54.242;12.442;2023-08-20T04:34:57;57.10;;;18.80;;
69502;SDS011;56704;54.242;12.442;2023-08-20T04:37:25;61.27;;;19.77;;
69502;SDS011;56704;54.242;12.442;2023-08-20T04:39:52;64.05;;;20.38;;
69502;SDS011;56704;54.242;12.442;2023-08-20T04:42:19;63.75;;;19.50;;
69502;SDS011;56704;54.242;12.442;2023-08-20T04:44:45;57.28;;;18.17;;
69502;SDS011;56704;54.242;12.442;2023-08-20T04:47:12;57.78;;;19.15;;
69502;SDS011;56704;54.242;12.442;2023-08-20T04:49:39;54.80;;;18.00;;
69502;SDS011;56704;54.242;12.442;2023-08-20T04:52:06;57.08;;;19.75;;
69502;SDS011;56704;54.242;12.442;2023-08-20T04:54:34;53.63;;;18.58;;
69502;SDS011;56704;54.242;12.442;2023-08-20T04:57:01;56.10;;;18.38;;
69502;SDS011;56704;54.242;12.442;2023-08-20T04:59:27;54.65;;;17.92;;
69502;SDS011;56704;54.242;12.442;2023-08-20T05:01:54;56.07;;;17.90;;
69502;SDS011;56704;54.242;12.442;2023-08-20T05:04:21;48.50;;;17.15;;
69502;SDS011;56704;54.242;12.442;2023-08-20T05:06:47;48.35;;;16.40;;
69502;SDS011;56704;54.242;12.442;2023-08-20T05:09:14;48.67;;;16.20;;
69502;SDS011;56704;54.242;12.442;2023-08-20T05:11:42;45.88;;;16.70;;
69502;SDS011;56704;54.242;12.442;2023-08-20T05:14:09;48.30;;;15.70;;
69502;SDS011;56704;54.242;12.442;2023-08-20T05:16:35;46.45;;;17.05;;
69502;SDS011;56704;54.242;12.442;2023-08-20T05:19:02;51.47;;;17.13;;
69502;SDS011;56704;54.242;12.442;2023-08-20T05:21:29;52.80;;;16.75;;
69502;SDS011;56704;54.242;12.442;2023-08-20T05:23:55;46.13;;;16.80;;
69502;SDS011;56704;54.242;12.442;2023-08-20T05:26:22;51.80;;;17.30;;
69502;SDS011;56704;54.242;12.442;2023-08-20T05:28:50;49.47;;;17.67;;
69502;SDS011;56704;54.242;12.442;2023-08-20T05:31:17;41.15;;;16.35;;
69502;SDS011;56704;54.242;12.442;2023-08-20T05:33:44;46.25;;;16.48;;
69502;SDS011;56704;54.242;12.442;2023-08-20T05:36:10;43.28;;;15.63;;
69502;SDS011;56704;54.242;12.442;2023-08-20T05:38:37;48.17;;;16.27;;
69502;SDS011;56704;54.242;12.442;2023-08-20T05:41:03;41.65;;;15.55;;
69502;SDS011;56704;54.242;12.442;2023-08-20T05:43:30;46.08;;;15.43;;
69502;SDS011;56704;54.242;12.442;2023-08-20T05:45:58;46.28;;;16.17;;
69502;SDS011;56704;54.242;12.442;2023-08-20T05:48:25;49.05;;;15.52;;
69502;SDS011;56704;54.242;12.442;2023-08-20T05:50:51;41.50;;;15.83;;
69502;SDS011;56704;54.242;12.442;2023-08-20T05:53:18;41.45;;;15.65;;
69502;SDS011;56704;54.242;12.442;2023-08-20T05:55:44;37.97;;;14.75;;
69502;SDS011;56704;54.242;12.442;2023-08-20T05:58:11;38.17;;;13.95;;
69502;SDS011;56704;54.242;12.442;2023-08-20T06:00:37;36.92;;;14.05;;
69502;SDS011;56704;54.242;12.442;2023-08-20T06:03:05;34.47;;;13.33;;
69502;SDS011;56704;54.242;12.442;2023-08-20T06:05:33;36.75;;;13.55;;
69502;SDS011;56704;54.242;12.442;2023-08-20T06:07:59;31.40;;;13.45;;
69502;SDS011;56704;54.242;12.442;2023-08-20T06:10:26;33.92;;;13.63;;
69502;SDS011;56704;54.242;12.442;2023-08-20T06:12:53;31.17;;;12.77;;
69502;SDS011;56704;54.242;12.442;2023-08-20T06:15:19;27.00;;;12.43;;
69502;SDS011;56704;54.242;12.442;2023-08-20T06:17:46;30.38;;;12.65;;
69502;SDS011;56704;54.242;12.442;2023-08-20T06:20:14;27.85;;;12.02;;
69502;SDS011;56704;54.242;12.442;2023-08-20T06:22:43;27.85;;;10.90;;
69502;SDS011;56704;54.242;12.442;2023-08-20T06:25:10;22.33;;;10.85;;
69502;SDS011;56704;54.242;12.442;2023-08-20T06:27:38;25.20;;;11.27;;
69502;SDS011;56704;54.242;12.442;2023-08-20T06:30:05;22.45;;;10.30;;
69502;SDS011;56704;54.242;12.442;2023-08-20T06:32:32;24.38;;;10.57;;
69502;SDS011;56704;54.242;12.442;2023-08-20T06:34:59;22.42;;;10.43;;
69502;SDS011;56704;54.242;12.442;2023-08-20T06:37:27;23.85;;;9.75;;
69502;SDS011;56704;54.242;12.442;2023-08-20T06:39:53;20.27;;;10.03;;
69502;SDS011;56704;54.242;12.442;2023-08-20T06:42:20;21.70;;;9.65;;
69502;SDS011;56704;54.242;12.442;2023-08-20T06:44:46;24.15;;;9.60;;
69502;SDS011;56704;54.242;12.442;2023-08-20T06:47:13;18.98;;;9.00;;
69502;SDS011;56704;54.242;12.442;2023-08-20T06:49:40;19.20;;;8.05;;
69502;SDS011;56704;54.242;12.442;2023-08-20T06:52:06;16.60;;;6.37;;
69502;SDS011;56704;54.242;12.442;2023-08-20T06:54:34;15.70;;;6.55;;
69502;SDS011;56704;54.242;12.442;2023-08-20T06:57:01;14.00;;;6.20;;
69502;SDS011;56704;54.242;12.442;2023-08-20T06:59:28;13.07;;;5.00;;
69502;SDS011;56704;54.242;12.442;2023-08-20T07:01:54;10.93;;;5.35;;
69502;SDS011;56704;54.242;12.442;2023-08-20T07:04:21;11.40;;;4.90;;
69502;SDS011;56704;54.242;12.442;2023-08-20T07:06:48;12.30;;;5.30;;
69502;SDS011;56704;54.242;12.442;2023-08-20T07:09:14;13.18;;;5.65;;
69502;SDS011;56704;54.242;12.442;2023-08-20T07:11:42;14.95;;;5.93;;
69502;SDS011;56704;54.242;12.442;2023-08-20T07:14:09;14.75;;;6.00;;
69502;SDS011;56704;54.242;12.442;2023-08-20T07:16:36;16.23;;;5.53;;
69502;SDS011;56704;54.242;12.442;2023-08-20T07:19:02;13.50;;;5.65;;
69502;SDS011;56704;54.242;12.442;2023-08-20T07:21:29;15.50;;;6.28;;
69502;SDS011;56704;54.242;12.442;2023-08-20T07:23:56;13.10;;;5.25;;
69502;SDS011;56704;54.242;12.442;2023-08-20T07:26:22;12.10;;;4.85;;
69502;SDS011;56704;54.242;12.442;2023-08-20T07:28:50;16.30;;;6.17;;
69502;SDS011;56704;54.242;12.442;2023-08-20T07:31:23;10.57;;;4.60;;
69502;SDS011;56704;54.242;12.442;2023-08-20T07:33:50;10.80;;;4.93;;
69502;SDS011;56704;54.242;12.442;2023-08-20T07:36:17;11.65;;;5.25;;
69502;SDS011;56704;54.242;12.442;2023-08-20T07:38:46;12.55;;;5.32;;
69502;SDS011;56704;54.242;12.442;2023-08-20T07:41:14;11.70;;;5.03;;
69502;SDS011;56704;54.242;12.442;2023-08-20T07:43:40;12.82;;;4.82;;
69502;SDS011;56704;54.242;12.442;2023-08-20T07:46:08;10.80;;;4.57;;
69502;SDS011;56704;54.242;12.442;2023-08-20T07:48:35;12.25;;;5.15;;
69502;SDS011;56704;54.242;12.442;2023-08-20T07:51:02;12.40;;;5.25;;
69502;SDS011;56704;54.242;12.442;2023-08-20T07:53:29;12.53;;;5.10;;
69502;SDS011;56704;54.242;12.442;2023-08-20T07:55:56;12.18;;;4.80;;
69502;SDS011;56704;54.242;12.442;2023-08-20T07:58:23;10.63;;;4.32;;
69502;SDS011;56704;54.242;12.442;2023-08-20T08:00:49;9.05;;;4.15;;
69502;SDS011;56704;54.242;12.442;2023-08-20T08:03:17;12.48;;;4.22;;
69502;SDS011;56704;54.242;12.442;2023-08-20T08:05:45;12.70;;;4.20;;
69502;SDS011;56704;54.242;12.442;2023-08-20T08:08:13;10.00;;;4.05;;
69502;SDS011;56704;54.242;12.442;2023-08-20T08:10:39;12.43;;;4.53;;
69502;SDS011;56704;54.242;12.442;2023-08-20T08:13:09;12.48;;;4.50;;
69502;SDS011;56704;54.242;12.442;2023-08-20T08:15:36;12.45;;;4.40;;
69502;SDS011;56704;54.242;12.442;2023-08-20T08:18:02;8.70;;;3.50;;
69502;SDS011;56704;54.242;12.442;2023-08-20T08:20:31;11.00;;;3.83;;
69502;SDS011;56704;54.242;12.442;2023-08-20T08:22:57;10.05;;;3.67;;
69502;SDS011;56704;54.242;12.442;2023-08-20T08:25:24;10.27;;;3.88;;
69502;SDS011;56704;54.242;12.442;2023-08-20T08:27:51;11.95;;;3.90;;
69502;SDS011;56704;54.242;12.442;2023-08-20T08:30:18;9.57;;;3.50;;
69502;SDS011;56704;54.242;12.442;2023-08-20T08:32:44;9.15;;;3.60;;
69502;SDS011;56704;54.242;12.442;2023-08-20T08:35:11;9.60;;;4.28;;
69502;SDS011;56704;54.242;12.442;2023-08-20T08:37:39;11.40;;;4.28;;
69502;SDS011;56704;54.242;12.442;2023-08-20T08:40:06;10.90;;;3.60;;
69502;SDS011;56704;54.242;12.442;2023-08-20T08:42:34;10.80;;;3.50;;
69502;SDS011;56704;54.242;12.442;2023-08-20T08:45:01;9.60;;;3.50;;
69502;SDS011;56704;54.242;12.442;2023-08-20T08:47:29;8.30;;;2.88;;
69502;SDS011;56704;54.242;12.442;2023-08-20T08:49:56;8.50;;;3.13;;
69502;SDS011;56704;54.242;12.442;2023-08-20T08:52:23;8.00;;;3.08;;
69502;SDS011;56704;54.242;12.442;2023-08-20T08:54:51;7.37;;;3.30;;
69502;SDS011;56704;54.242;12.442;2023-08-20T08:57:18;8.82;;;3.60;;
69502;SDS011;56704;54.242;12.442;2023-08-20T08:59:45;9.07;;;2.75;;
69502;SDS011;56704;54.242;12.442;2023-08-20T09:02:12;7.78;;;3.20;;
69502;SDS011;56704;54.242;12.442;2023-08-20T09:04:42;10.95;;;3.00;;
69502;SDS011;56704;54.242;12.442;2023-08-20T09:07:10;6.50;;;3.17;;
69502;SDS011;56704;54.242;12.442;2023-08-20T09:09:41;10.05;;;4.25;;
69502;SDS011;56704;54.242;12.442;2023-08-20T09:12:13;10.85;;;3.20;;
69502;SDS011;56704;54.242;12.442;2023-08-20T09:14:43;7.93;;;2.83;;
69502;SDS011;56704;54.242;12.442;2023-08-20T09:17:12;8.02;;;3.50;;
69502;SDS011;56704;54.242;12.442;2023-08-20T09:19:39;6.70;;;2.80;;
69502;SDS011;56704;54.242;12.442;2023-08-20T09:22:09;7.07;;;3.05;;
69502;SDS011;56704;54.242;12.442;2023-08-20T09:24:39;5.25;;;2.15;;
69502;SDS011;56704;54.242;12.442;2023-08-20T09:27:07;7.85;;;2.90;;
69502;SDS011;56704;54.242;12.442;2023-08-20T09:29:35;8.75;;;2.80;;
69502;SDS011;56704;54.242;12.442;2023-08-20T09:32:13;8.23;;;2.43;;
69502;SDS011;56704;54.242;12.442;2023-08-20T09:34:41;8.90;;;2.60;;
69502;SDS011;56704;54.242;12.442;2023-08-20T09:37:08;7.57;;;2.35;;
69502;SDS011;56704;54.242;12.442;2023-08-20T09:39:35;6.95;;;2.60;;
69502;SDS011;56704;54.242;12.442;2023-08-20T09:42:03;11.98;;;2.95;;
69502;SDS011;56704;54.242;12.442;2023-08-20T09:44:32;8.47;;;2.83;;
69502;SDS011;56704;54.242;12.442;2023-08-20T09:47:02;7.82;;;2.45;;
69502;SDS011;56704;54.242;12.442;2023-08-20T09:49:32;7.03;;;2.45;;
69502;SDS011;56704;54.242;12.442;2023-08-20T09:52:04;5.97;;;1.98;;
69502;SDS011;56704;54.242;12.442;2023-08-20T09:54:35;9.27;;;2.50;;
69502;SDS011;56704;54.242;12.442;2023-08-20T09:57:10;7.93;;;2.70;;
69502;SDS011;56704;54.242;12.442;2023-08-20T09:59:40;10.45;;;2.60;;
69502;SDS011;56704;54.242;12.442;2023-08-20T10:02:09;6.82;;;2.75;;
69502;SDS011;56704;54.242;12.442;2023-08-20T10:04:40;7.85;;;2.58;;
69502;SDS011;56704;54.242;12.442;2023-08-20T10:07:08;7.78;;;2.78;;
69502;SDS011;56704;54.242;12.442;2023-08-20T10:09:36;7.30;;;2.60;;
69502;SDS011;56704;54.242;12.442;2023-08-20T10:12:05;9.50;;;2.30;;
69502;SDS011;56704;54.242;12.442;2023-08-20T10:14:32;7.28;;;2.10;;
69502;SDS011;56704;54.242;12.442;2023-08-20T10:16:59;9.23;;;2.40;;
69502;SDS011;56704;54.242;12.442;2023-08-20T10:19:34;8.50;;;2.40;;
69502;SDS011;56704;54.242;12.442;2023-08-20T10:22:02;8.23;;;2.50;;
69502;SDS011;56704;54.242;12.442;2023-08-20T10:24:39;6.38;;;2.10;;
69502;SDS011;56704;54.242;12.442;2023-08-20T10:27:07;7.30;;;2.33;;
69502;SDS011;56704;54.242;12.442;2023-08-20T10:29:35;6.72;;;2.40;;
69502;SDS011;56704;54.242;12.442;2023-08-20T10:32:04;9.52;;;2.50;;
69502;SDS011;56704;54.242;12.442;2023-08-20T10:34:36;9.33;;;2.50;;
69502;SDS011;56704;54.242;12.442;2023-08-20T10:37:08;5.55;;;2.05;;
69502;SDS011;56704;54.242;12.442;2023-08-20T10:39:35;5.97;;;2.42;;
69502;SDS011;56704;54.242;12.442;2023-08-20T10:42:08;7.50;;;2.30;;
69502;SDS011;56704;54.242;12.442;2023-08-20T10:47:22;8.10;;;2.20;;
69502;SDS011;56704;54.242;12.442;2023-08-20T10:49:51;6.88;;;2.10;;
69502;SDS011;56704;54.242;12.442;2023-08-20T10:52:19;5.85;;;1.92;;
69502;SDS011;56704;54.242;12.442;2023-08-20T10:54:49;8.05;;;2.05;;
69502;SDS011;56704;54.242;12.442;2023-08-20T10:57:16;7.72;;;2.10;;
69502;SDS011;56704;54.242;12.442;2023-08-20T10:59:43;6.67;;;1.97;;
69502;SDS011;56704;54.242;12.442;2023-08-20T11:02:11;7.03;;;2.00;;
69502;SDS011;56704;54.242;12.442;2023-08-20T11:04:40;6.78;;;1.83;;
69502;SDS011;56704;54.242;12.442;2023-08-20T11:07:08;6.53;;;2.20;;
69502;SDS011;56704;54.242;12.442;2023-08-20T11:09:36;5.68;;;2.10;;
69502;SDS011;56704;54.242;12.442;2023-08-20T11:12:05;5.90;;;1.80;;
69502;SDS011;56704;54.242;12.442;2023-08-20T11:14:32;5.97;;;2.00;;
69502;SDS011;56704;54.242;12.442;2023-08-20T11:17:01;6.43;;;2.15;;
69502;SDS011;56704;54.242;12.442;2023-08-20T11:19:28;7.75;;;2.05;;
69502;SDS011;56704;54.242;12.442;2023-08-20T11:21:54;5.45;;;1.92;;
69502;SDS011;56704;54.242;12.442;2023-08-20T11:24:22;7.00;;;2.00;;
69502;SDS011;56704;54.242;12.442;2023-08-20T11:26:49;6.38;;;1.77;;
69502;SDS011;56704;54.242;12.442;2023-08-20T11:29:16;7.32;;;1.85;;
69502;SDS011;56704;54.242;12.442;2023-08-20T11:31:45;5.47;;;1.60;;
69502;SDS011;56704;54.242;12.442;2023-08-20T11:34:12;7.07;;;2.00;;
69502;SDS011;56704;54.242;12.442;2023-08-20T11:36:39;8.13;;;2.23;;
69502;SDS011;56704;54.242;12.442;2023-08-20T11:39:06;7.90;;;2.15;;
69502;SDS011;56704;54.242;12.442;2023-08-20T11:41:36;7.13;;;1.85;;
69502;SDS011;56704;54.242;12.442;2023-08-20T11:44:04;5.45;;;1.92;;
69502;SDS011;56704;54.242;12.442;2023-08-20T11:46:31;7.60;;;2.45;;
69502;SDS011;56704;54.242;12.442;2023-08-20T11:48:58;6.00;;;1.90;;
69502;SDS011;56704;54.242;12.442;2023-08-20T11:51:26;5.53;;;1.92;;
69502;SDS011;56704;54.242;12.442;2023-08-20T11:53:53;9.70;;;2.30;;
69502;SDS011;56704;54.242;12.442;2023-08-20T11:56:20;5.72;;;2.00;;
69502;SDS011;56704;54.242;12.442;2023-08-20T11:58:50;4.95;;;1.55;;
69502;SDS011;56704;54.242;12.442;2023-08-20T12:01:17;5.10;;;1.63;;
69502;SDS011;56704;54.242;12.442;2023-08-20T12:03:44;6.63;;;1.80;;
69502;SDS011;56704;54.242;12.442;2023-08-20T12:06:16;5.85;;;2.10;;
69502;SDS011;56704;54.242;12.442;2023-08-20T12:08:44;6.32;;;1.95;;
69502;SDS011;56704;54.242;12.442;2023-08-20T12:11:10;5.75;;;2.08;;
69502;SDS011;56704;54.242;12.442;2023-08-20T12:13:37;7.57;;;2.00;;
69502;SDS011;56704;54.242;12.442;2023-08-20T12:16:05;6.18;;;2.00;;
69502;SDS011;56704;54.242;12.442;2023-08-20T12:18:32;6.95;;;1.95;;
69502;SDS011;56704;54.242;12.442;2023-08-20T12:20:59;5.70;;;1.77;;
69502;SDS011;56704;54.242;12.442;2023-08-20T12:23:27;6.38;;;2.05;;
69502;SDS011;56704;54.242;12.442;2023-08-20T12:25:54;6.20;;;1.80;;
69502;SDS011;56704;54.242;12.442;2023-08-20T12:28:20;4.43;;;1.95;;
69502;SDS011;56704;54.242;12.442;2023-08-20T12:30:47;5.97;;;1.60;;
69502;SDS011;56704;54.242;12.442;2023-08-20T12:33:15;6.38;;;1.70;;
69502;SDS011;56704;54.242;12.442;2023-08-20T12:35:42;5.72;;;1.92;;
69502;SDS011;56704;54.242;12.442;2023-08-20T12:38:08;7.63;;;1.63;;
69502;SDS011;56704;54.242;12.442;2023-08-20T12:40:35;6.40;;;1.85;;
69502;SDS011;56704;54.242;12.442;2023-08-20T12:43:02;5.40;;;1.75;;
69502;SDS011;56704;54.242;12.442;2023-08-20T12:45:29;5.03;;;1.63;;
69502;SDS011;56704;54.242;12.442;2023-08-20T12:47:55;5.65;;;1.73;;
69502;SDS011;56704;54.242;12.442;2023-08-20T12:50:23;7.40;;;2.00;;
69502;SDS011;56704;54.242;12.442;2023-08-20T12:52:51;4.90;;;1.67;;
69502;SDS011;56704;54.242;12.442;2023-08-20T12:55:17;6.32;;;1.50;;
69502;SDS011;56704;54.242;12.442;2023-08-20T12:57:52;6.35;;;1.85;;
69502;SDS011;56704;54.242;12.442;2023-08-20T13:00:20;5.38;;;1.50;;
69502;SDS011;56704;54.242;12.442;2023-08-20T13:02:47;6.60;;;1.60;;
69502;SDS011;56704;54.242;12.442;2023-08-20T13:05:14;6.13;;;1.63;;
69502;SDS011;56704;54.242;12.442;2023-08-20T13:07:43;4.85;;;1.52;;
69502;SDS011;56704;54.242;12.442;2023-08-20T13:10:10;5.95;;;1.50;;
69502;SDS011;56704;54.242;12.442;2023-08-20T13:12:37;6.50;;;1.48;;
69502;SDS011;56704;54.242;12.442;2023-08-20T13:15:07;5.87;;;1.67;;
69502;SDS011;56704;54.242;12.442;2023-08-20T13:17:35;5.65;;;2.03;;
69502;SDS011;56704;54.242;12.442;2023-08-20T13:20:03;3.97;;;1.20;;
69502;SDS011;56704;54.242;12.442;2023-08-20T13:22:32;4.78;;;1.58;;
69502;SDS011;56704;54.242;12.442;2023-08-20T13:25:00;6.30;;;1.75;;
69502;SDS011;56704;54.242;12.442;2023-08-20T13:27:26;6.73;;;1.50;;
69502;SDS011;56704;54.242;12.442;2023-08-20T13:29:53;5.68;;;1.30;;
69502;SDS011;56704;54.242;12.442;2023-08-20T13:32:20;6.03;;;1.30;;
69502;SDS011;56704;54.242;12.442;2023-08-20T13:34:46;3.72;;;1.13;;
69502;SDS011;56704;54.242;12.442;2023-08-20T13:37:14;4.88;;;1.38;;
69502;SDS011;56704;54.242;12.442;2023-08-20T13:39:40;5.77;;;1.30;;
69502;SDS011;56704;54.242;12.442;2023-08-20T13:42:08;4.07;;;1.40;;
69502;SDS011;56704;54.242;12.442;2023-08-20T13:44:35;7.35;;;1.80;;
69502;SDS011;56704;54.242;12.442;2023-08-20T13:47:01;4.65;;;1.42;;
69502;SDS011;56704;54.242;12.442;2023-08-20T13:49:28;4.70;;;1.30;;
69502;SDS011;56704;54.242;12.442;2023-08-20T13:51:55;5.43;;;1.53;;
69502;SDS011;56704;54.242;12.442;2023-08-20T13:54:21;5.95;;;1.30;;
69502;SDS011;56704;54.242;12.442;2023-08-20T13:56:48;4.60;;;1.63;;
69502;SDS011;56704;54.242;12.442;2023-08-20T13:59:16;5.50;;;1.75;;
69502;SDS011;56704;54.242;12.442;2023-08-20T14:01:43;6.40;;;1.65;;
69502;SDS011;56704;54.242;12.442;2023-08-20T14:04:09;6.10;;;1.50;;
69502;SDS011;56704;54.242;12.442;2023-08-20T14:06:36;4.93;;;1.30;;
69502;SDS011;56704;54.242;12.442;2023-08-20T14:09:02;8.27;;;1.23;;
69502;SDS011;56704;54.242;12.442;2023-08-20T14:11:31;3.47;;;1.38;;
69502;SDS011;56704;54.242;12.442;2023-08-20T14:13:57;5.65;;;1.45;;
69502;SDS011;56704;54.242;12.442;2023-08-20T14:16:25;5.40;;;1.30;;
69502;SDS011;56704;54.242;12.442;2023-08-20T14:18:52;6.45;;;1.40;;
69502;SDS011;56704;54.242;12.442;2023-08-20T14:21:19;4.03;;;1.13;;
69502;SDS011;56704;54.242;12.442;2023-08-20T14:23:46;5.00;;;1.60;;
69502;SDS011;56704;54.242;12.442;2023-08-20T14:26:12;5.03;;;1.27;;